Dades meteomassalio
Diari Summary for Gener 11, 2018 Units:  Both    English   Metric
« Previous Day
Next Day »
Diari Semanal Mensual Anual Personalitzat
  Maxima: Minima: Mijana:
Temperatura: TemperatureC °F /  -17.8 °C 0.6 °F /  -17.4 °C 6.4 °F /  -14.2 °C
Rosada: DewpointC °F /  -17.8 °C -3.7 °F /  -19.8 °C 1.3 °F /  -17.1 °C
Humitat: Humidity % 55 % 69 %
Velocitat del vent: WindSpeedKMH mph /  0 km/h - 25.7 mph /  41.4 km/h
Racha vent: WindSpeedGustKMH mph /  0 km/h - -
Vent:- - NW
Pressio: PressurehPa in /  0 hPa 1019.5 in /  34520.3 hPa -
Pluja: 0.0 in /  0 mm    
Historical Graphs
 
 
Tabular Data for Gener 11, 2018
Time Temperature Dew Point Pressure Wind Wind Speed Wind Gust Humidity Rainfall Rate (Hourly) solar Conditions
TemperatureC °F /  -17.8 °C DewpointC °F /  -17.8 °C PressurehPa in /  0 hPa Calm     Humidity % HourlyPrecipMM in /  0 mm SolarRadiationWatts/m^2 W/m2 Conditions
01:15 7.8 °F /  -13.4 °C 2.7 °F /  -16.3 °C 1020.5 in /  34554.1 hPa NNW 40.7 mph /  65.5 km/h 40.7 mph /  65.5 km/h 70 % 0.0 in /  0 mm 0.0 W/m2 CLR
01:31 6.7 °F /  -14.1 °C 2.7 °F /  -16.3 °C 1020.5 in /  34554.1 hPa NNW 31.5 mph /  50.7 km/h 31.5 mph /  50.7 km/h 76 % 0.0 in /  0 mm 0.0 W/m2 CLR
02:05 6.7 °F /  -14.1 °C 2.7 °F /  -16.3 °C 1020.2 in /  34544 hPa NW 29.6 mph /  47.6 km/h 29.6 mph /  47.6 km/h 76 % 0.0 in /  0 mm 0.0 W/m2 CLR
02:07 6.7 °F /  -14.1 °C 2.7 °F /  -16.3 °C 1020.5 in /  34554.1 hPa NNW 27.8 mph /  44.7 km/h 27.8 mph /  44.7 km/h 76 % 0.0 in /  0 mm 0.0 W/m2 CLR
02:08 6.7 °F /  -14.1 °C 2.7 °F /  -16.3 °C 1020.5 in /  34554.1 hPa NW 24.1 mph /  38.8 km/h 24.1 mph /  38.8 km/h 76 % 0.0 in /  0 mm 0.0 W/m2 CLR
02:10 6.7 °F /  -14.1 °C 2.6 °F /  -16.3 °C 1020.5 in /  34554.1 hPa NNW 24.1 mph /  38.8 km/h 24.1 mph /  38.8 km/h 75 % 0.0 in /  0 mm 0.0 W/m2 CLR
02:21 6.7 °F /  -14.1 °C 2.6 °F /  -16.3 °C 1020.2 in /  34544 hPa North 22.2 mph /  35.7 km/h 22.2 mph /  35.7 km/h 75 % 0.0 in /  0 mm 0.0 W/m2 CLR
02:27 6.7 °F /  -14.1 °C 2.6 °F /  -16.3 °C 1020.2 in /  34544 hPa NNW 27.8 mph /  44.7 km/h 27.8 mph /  44.7 km/h 75 % 0.0 in /  0 mm 0.0 W/m2 CLR
02:32 6.7 °F /  -14.1 °C 2.6 °F /  -16.3 °C 1020.2 in /  34544 hPa NW 24.1 mph /  38.8 km/h 24.1 mph /  38.8 km/h 75 % 0.0 in /  0 mm 0.0 W/m2 CLR
02:38 6.1 °F /  -14.4 °C 1.8 °F /  -16.8 °C 1020.2 in /  34544 hPa NW 24.1 mph /  38.8 km/h 24.1 mph /  38.8 km/h 74 % 0.0 in /  0 mm 0.0 W/m2 CLR
02:47 6.1 °F /  -14.4 °C 1.6 °F /  -16.9 °C 1020.2 in /  34544 hPa NW 20.4 mph /  32.8 km/h 20.4 mph /  32.8 km/h 73 % 0.0 in /  0 mm 0.0 W/m2 CLR
03:02 5.6 °F /  -14.7 °C 0.7 °F /  -17.4 °C 1020.2 in /  34544 hPa NW 24.1 mph /  38.8 km/h 24.1 mph /  38.8 km/h 71 % 0.0 in /  0 mm 0.0 W/m2 CLR
03:08 5.6 °F /  -14.7 °C 0.7 °F /  -17.4 °C 1020.2 in /  34544 hPa NNW 19.3 mph /  31.1 km/h 19.3 mph /  31.1 km/h 71 % 0.0 in /  0 mm 0.0 W/m2 CLR
03:25 5.0 °F /  -15 °C 0.4 °F /  -17.6 °C 1020.2 in /  34544 hPa NNW 18.5 mph /  29.8 km/h 18.5 mph /  29.8 km/h 72 % 0.0 in /  0 mm 0.0 W/m2 CLR
03:36 5.0 °F /  -15 °C 0.6 °F /  -17.4 °C 1019.9 in /  34533.8 hPa NW 16.7 mph /  26.9 km/h 16.7 mph /  26.9 km/h 73 % 0.0 in /  0 mm 0.0 W/m2 CLR
03:52 4.4 °F /  -15.3 °C 0.0 °F /  -17.8 °C 1019.9 in /  34533.8 hPa NW 16.1 mph /  25.9 km/h 16.1 mph /  25.9 km/h 73 % 0.0 in /  0 mm 0.0 W/m2 CLR
03:59 4.4 °F /  -15.3 °C -0.2 °F /  -17.9 °C 1019.9 in /  34533.8 hPa NW 14.8 mph /  23.8 km/h 14.8 mph /  23.8 km/h 72 % 0.0 in /  0 mm 0.0 W/m2 CLR
04:05 5.0 °F /  -15 °C 0.4 °F /  -17.6 °C 1019.9 in /  34533.8 hPa NW 18.5 mph /  29.8 km/h 18.5 mph /  29.8 km/h 72 % 0.0 in /  0 mm 0.0 W/m2 CLR
04:12 4.4 °F /  -15.3 °C -0.2 °F /  -17.9 °C 1019.9 in /  34533.8 hPa NW 18.5 mph /  29.8 km/h 18.5 mph /  29.8 km/h 72 % 0.0 in /  0 mm 0.0 W/m2 CLR
04:17 5.0 °F /  -15 °C 0.2 °F /  -17.7 °C 1019.9 in /  34533.8 hPa NW 20.4 mph /  32.8 km/h 20.4 mph /  32.8 km/h 71 % 0.0 in /  0 mm 0.0 W/m2 CLR
04:25 5.0 °F /  -15 °C 0.0 °F /  -17.8 °C 1019.5 in /  34520.3 hPa NW 25.9 mph /  41.7 km/h 25.9 mph /  41.7 km/h 70 % 0.0 in /  0 mm 0.0 W/m2 CLR
04:51 5.0 °F /  -15 °C 0.2 °F /  -17.7 °C 1019.9 in /  34533.8 hPa NNW 20.9 mph /  33.6 km/h 20.9 mph /  33.6 km/h 71 % 0.0 in /  0 mm 0.0 W/m2 CLR
04:58 5.0 °F /  -15 °C 0.2 °F /  -17.7 °C 1019.9 in /  34533.8 hPa NW 11.1 mph /  17.9 km/h 11.1 mph /  17.9 km/h 71 % 0.0 in /  0 mm 0.0 W/m2 CLR
05:09 4.4 °F /  -15.3 °C -0.3 °F /  -17.9 °C 1019.9 in /  34533.8 hPa NNW 19.3 mph /  31.1 km/h 19.3 mph /  31.1 km/h 71 % 0.0 in /  0 mm 0.0 W/m2 CLR
05:18 4.4 °F /  -15.3 °C -0.3 °F /  -17.9 °C 1019.5 in /  34520.3 hPa NW 22.2 mph /  35.7 km/h 22.2 mph /  35.7 km/h 71 % 0.0 in /  0 mm 0.0 W/m2 CLR
05:29 4.4 °F /  -15.3 °C -0.3 °F /  -17.9 °C 1019.9 in /  34533.8 hPa NW 24.1 mph /  38.8 km/h 24.1 mph /  38.8 km/h 71 % 0.0 in /  0 mm 0.0 W/m2 CLR
05:36 4.4 °F /  -15.3 °C -0.3 °F /  -17.9 °C 1019.5 in /  34520.3 hPa NW 24.1 mph /  38.8 km/h 24.1 mph /  38.8 km/h 71 % 0.0 in /  0 mm 0.0 W/m2 CLR
05:42 4.4 °F /  -15.3 °C -0.3 °F /  -17.9 °C 1019.5 in /  34520.3 hPa NW 24.1 mph /  38.8 km/h 24.1 mph /  38.8 km/h 71 % 0.0 in /  0 mm 0.0 W/m2 CLR
05:47 4.4 °F /  -15.3 °C -0.6 °F /  -18.1 °C 1019.9 in /  34533.8 hPa NW 24.1 mph /  38.8 km/h 24.1 mph /  38.8 km/h 70 % 0.0 in /  0 mm 0.0 W/m2 CLR
06:05 5.0 °F /  -15 °C 0.0 °F /  -17.8 °C 1019.9 in /  34533.8 hPa NW 18.5 mph /  29.8 km/h 18.5 mph /  29.8 km/h 70 % 0.0 in /  0 mm 0.0 W/m2 CLR
06:11 5.0 °F /  -15 °C 0.0 °F /  -17.8 °C 1019.9 in /  34533.8 hPa NNW 20.4 mph /  32.8 km/h 20.4 mph /  32.8 km/h 70 % 0.0 in /  0 mm 0.0 W/m2 CLR
06:23 5.0 °F /  -15 °C 0.2 °F /  -17.7 °C 1019.9 in /  34533.8 hPa NW 13.0 mph /  20.9 km/h 13.0 mph /  20.9 km/h 71 % 0.0 in /  0 mm 0.0 W/m2 CLR
06:28 5.0 °F /  -15 °C 0.2 °F /  -17.7 °C 1019.9 in /  34533.8 hPa NW 11.1 mph /  17.9 km/h 11.1 mph /  17.9 km/h 71 % 0.0 in /  0 mm 0.0 W/m2 CLR
06:35 4.4 °F /  -15.3 °C -0.2 °F /  -17.9 °C 1019.5 in /  34520.3 hPa NW 11.1 mph /  17.9 km/h 11.1 mph /  17.9 km/h 72 % 0.0 in /  0 mm 0.0 W/m2 CLR
06:44 4.4 °F /  -15.3 °C -0.3 °F /  -17.9 °C 1019.5 in /  34520.3 hPa NW 13.0 mph /  20.9 km/h 13.0 mph /  20.9 km/h 71 % 0.0 in /  0 mm 0.0 W/m2 CLR
06:52 4.4 °F /  -15.3 °C -0.3 °F /  -17.9 °C 1019.5 in /  34520.3 hPa NW 13.0 mph /  20.9 km/h 13.0 mph /  20.9 km/h 71 % 0.0 in /  0 mm 0.0 W/m2 CLR
07:00 3.9 °F /  -15.6 °C -0.9 °F /  -18.3 °C 1019.5 in /  34520.3 hPa NW 9.3 mph /  15 km/h 9.3 mph /  15 km/h 71 % 0.0 in /  0 mm 0.0 W/m2 CLR
07:12 2.8 °F /  -16.2 °C -1.8 °F /  -18.8 °C 1019.9 in /  34533.8 hPa Calm     72 % 0.0 in /  0 mm 0.0 W/m2 CLR
07:21 2.2 °F /  -16.6 °C -2.3 °F /  -19.1 °C 1019.9 in /  34533.8 hPa Calm     72 % 0.0 in /  0 mm 0.0 W/m2 CLR
07:30 1.7 °F /  -16.8 °C -2.8 °F /  -19.3 °C 1019.9 in /  34533.8 hPa Calm     72 % 0.0 in /  0 mm 0.0 W/m2 CLR
07:36 1.7 °F /  -16.8 °C -2.8 °F /  -19.3 °C 1019.9 in /  34533.8 hPa WNW 5.6 mph /  9 km/h 5.6 mph /  9 km/h 72 % 0.0 in /  0 mm 0.0 W/m2 CLR
07:53 1.1 °F /  -17.2 °C -3.4 °F /  -19.7 °C 1019.9 in /  34533.8 hPa WNW 5.6 mph /  9 km/h 5.6 mph /  9 km/h 72 % 0.0 in /  0 mm 0.0 W/m2 CLR
08:02 1.1 °F /  -17.2 °C -3.4 °F /  -19.7 °C 1020.2 in /  34544 hPa NW 14.8 mph /  23.8 km/h 14.8 mph /  23.8 km/h 72 % 0.0 in /  0 mm 0.0 W/m2 CLR
08:14 0.6 °F /  -17.4 °C -3.7 °F /  -19.8 °C 1020.2 in /  34544 hPa NW 13.0 mph /  20.9 km/h 13.0 mph /  20.9 km/h 73 % 0.0 in /  0 mm 0.0 W/m2 OVC
08:32 3.3 °F /  -15.9 °C -1.2 °F /  -18.4 °C 1019.9 in /  34533.8 hPa NW 25.9 mph /  41.7 km/h 25.9 mph /  41.7 km/h 72 % 0.0 in /  0 mm 9.0 W/m2 BKN
08:52 5.0 °F /  -15 °C 0.2 °F /  -17.7 °C 1020.2 in /  34544 hPa NW 20.9 mph /  33.6 km/h 20.9 mph /  33.6 km/h 71 % 0.0 in /  0 mm 16.0 W/m2 BKN
09:03 5.0 °F /  -15 °C 0.2 °F /  -17.7 °C 1020.5 in /  34554.1 hPa NW 18.5 mph /  29.8 km/h 18.5 mph /  29.8 km/h 71 % 0.0 in /  0 mm 37.0 W/m2 BKN
09:12 5.0 °F /  -15 °C 0.2 °F /  -17.7 °C 1020.9 in /  34567.7 hPa NNW 14.8 mph /  23.8 km/h 14.8 mph /  23.8 km/h 71 % 0.0 in /  0 mm 58.0 W/m2 SCT
09:18 5.0 °F /  -15 °C 0.4 °F /  -17.6 °C 1020.9 in /  34567.7 hPa NW 7.4 mph /  11.9 km/h 7.4 mph /  11.9 km/h 72 % 0.0 in /  0 mm 69.0 W/m2 SCT
09:41 5.6 °F /  -14.7 °C 0.9 °F /  -17.3 °C 1020.9 in /  34567.7 hPa NW 14.8 mph /  23.8 km/h 14.8 mph /  23.8 km/h 72 % 0.0 in /  0 mm 167.0 W/m2 CLR
09:48 6.1 °F /  -14.4 °C 1.4 °F /  -17 °C 1020.9 in /  34567.7 hPa NW 18.5 mph /  29.8 km/h 18.5 mph /  29.8 km/h 72 % 0.0 in /  0 mm 169.0 W/m2 CLR
09:55 6.1 °F /  -14.4 °C 1.4 °F /  -17 °C 1020.9 in /  34567.7 hPa NW 22.2 mph /  35.7 km/h 22.2 mph /  35.7 km/h 72 % 0.0 in /  0 mm 179.0 W/m2 CLR
10:01 6.1 °F /  -14.4 °C 1.4 °F /  -17 °C 1020.9 in /  34567.7 hPa NNW 31.5 mph /  50.7 km/h 31.5 mph /  50.7 km/h 72 % 0.0 in /  0 mm 199.0 W/m2 CLR
10:13 6.7 °F /  -14.1 °C 2.0 °F /  -16.7 °C 1021.2 in /  34577.8 hPa North 24.1 mph /  38.8 km/h 24.1 mph /  38.8 km/h 72 % 0.0 in /  0 mm 234.0 W/m2 CLR
10:19 6.7 °F /  -14.1 °C 1.8 °F /  -16.8 °C 1021.2 in /  34577.8 hPa NNW 22.2 mph /  35.7 km/h 22.2 mph /  35.7 km/h 71 % 0.0 in /  0 mm 253.0 W/m2 CLR
10:36 6.7 °F /  -14.1 °C 1.8 °F /  -16.8 °C 1021.2 in /  34577.8 hPa NNW 24.1 mph /  38.8 km/h 24.1 mph /  38.8 km/h 71 % 0.0 in /  0 mm 322.0 W/m2 CLR
10:43 7.2 °F /  -13.8 °C 2.3 °F /  -16.5 °C 1021.6 in /  34591.4 hPa NNE 19.3 mph /  31.1 km/h 20.0 mph /  32.2 km/h 71 % 0.0 in /  0 mm 316.0 W/m2 CLR
11:19 7.8 °F /  -13.4 °C 2.7 °F /  -16.3 °C 1021.6 in /  34591.4 hPa North 27.8 mph /  44.7 km/h 27.8 mph /  44.7 km/h 70 % 0.0 in /  0 mm 362.0 W/m2 CLR
11:34 8.3 °F /  -13.2 °C 3.2 °F /  -16 °C 1021.6 in /  34591.4 hPa NW 25.9 mph /  41.7 km/h 25.9 mph /  41.7 km/h 70 % 0.0 in /  0 mm 388.0 W/m2 CLR
11:55 8.9 °F /  -12.8 °C 3.3 °F /  -15.9 °C 1021.6 in /  34591.4 hPa NNW 29.0 mph /  46.7 km/h 29.0 mph /  46.7 km/h 68 % 0.0 in /  0 mm 130.0 W/m2 CLR
12:16 8.9 °F /  -12.8 °C 2.9 °F /  -16.2 °C 1021.6 in /  34591.4 hPa NNW 42.6 mph /  68.6 km/h 42.6 mph /  68.6 km/h 66 % 0.0 in /  0 mm 153.0 W/m2 CLR
12:39 8.9 °F /  -12.8 °C 2.9 °F /  -16.2 °C 1021.2 in /  34577.8 hPa NNW 33.3 mph /  53.6 km/h 33.3 mph /  53.6 km/h 66 % 0.0 in /  0 mm 352.0 W/m2 CLR
12:45 8.9 °F /  -12.8 °C 2.7 °F /  -16.3 °C 1021.2 in /  34577.8 hPa NNW 37.0 mph /  59.5 km/h 37.0 mph /  59.5 km/h 65 % 0.0 in /  0 mm 209.0 W/m2 CLR
13:03 9.4 °F /  -12.6 °C 2.9 °F /  -16.2 °C 1021.2 in /  34577.8 hPa North 32.2 mph /  51.8 km/h 32.2 mph /  51.8 km/h 64 % 0.0 in /  0 mm 239.0 W/m2 CLR
13:13 9.4 °F /  -12.6 °C 2.9 °F /  -16.2 °C 1020.9 in /  34567.7 hPa North 40.2 mph /  64.7 km/h 40.2 mph /  64.7 km/h 64 % 0.0 in /  0 mm 443.0 W/m2 CLR
13:21 9.4 °F /  -12.6 °C 3.2 °F /  -16 °C 1020.9 in /  34567.7 hPa NNW 31.5 mph /  50.7 km/h 31.5 mph /  50.7 km/h 65 % 0.0 in /  0 mm 178.0 W/m2 CLR
13:30 9.4 °F /  -12.6 °C 3.2 °F /  -16 °C 1020.9 in /  34567.7 hPa NNW 27.8 mph /  44.7 km/h 27.8 mph /  44.7 km/h 65 % 0.0 in /  0 mm 399.0 W/m2 CLR
13:42 9.4 °F /  -12.6 °C 2.1 °F /  -16.6 °C 1020.9 in /  34567.7 hPa NNW 48.1 mph /  77.4 km/h 48.1 mph /  77.4 km/h 60 % 0.0 in /  0 mm 536.0 W/m2 CLR
13:51 10.6 °F /  -11.9 °C 3.1 °F /  -16.1 °C 1020.9 in /  34567.7 hPa North 40.7 mph /  65.5 km/h 40.7 mph /  65.5 km/h 60 % 0.0 in /  0 mm 489.0 W/m2 CLR
14:03 10.6 °F /  -11.9 °C 2.9 °F /  -16.2 °C 1020.9 in /  34567.7 hPa North 50.0 mph /  80.5 km/h 50.0 mph /  80.5 km/h 59 % 0.0 in /  0 mm 446.0 W/m2 CLR
14:18 10.6 °F /  -11.9 °C 2.9 °F /  -16.2 °C 1020.5 in /  34554.1 hPa North 46.3 mph /  74.5 km/h 46.3 mph /  74.5 km/h 59 % 0.0 in /  0 mm 436.0 W/m2 CLR
14:24 10.6 °F /  -11.9 °C 2.9 °F /  -16.2 °C 1020.5 in /  34554.1 hPa NNW 25.9 mph /  41.7 km/h 25.9 mph /  41.7 km/h 59 % 0.0 in /  0 mm 313.0 W/m2 CLR
14:30 10.6 °F /  -11.9 °C 2.9 °F /  -16.2 °C 1020.5 in /  34554.1 hPa NNE 29.6 mph /  47.6 km/h 29.6 mph /  47.6 km/h 59 % 0.0 in /  0 mm 446.0 W/m2 CLR
14:38 10.0 °F /  -12.2 °C 1.9 °F /  -16.7 °C 1020.9 in /  34567.7 hPa North 42.6 mph /  68.6 km/h 42.6 mph /  68.6 km/h 57 % 0.0 in /  0 mm 148.0 W/m2 CLR
14:52 10.0 °F /  -12.2 °C 2.3 °F /  -16.5 °C 1020.9 in /  34567.7 hPa NW 33.3 mph /  53.6 km/h 33.3 mph /  53.6 km/h 59 % 0.0 in /  0 mm 404.0 W/m2 CLR
15:07 9.4 °F /  -12.6 °C 1.8 °F /  -16.8 °C 1021.2 in /  34577.8 hPa NNW 42.6 mph /  68.6 km/h 42.6 mph /  68.6 km/h 59 % 0.0 in /  0 mm 44.0 W/m2 SCT
15:13 9.4 °F /  -12.6 °C 2.1 °F /  -16.6 °C 1021.2 in /  34577.8 hPa North 33.3 mph /  53.6 km/h 33.3 mph /  53.6 km/h 60 % 0.0 in /  0 mm 148.0 W/m2 FEW
15:56 10.6 °F /  -11.9 °C 1.9 °F /  -16.7 °C 1021.2 in /  34577.8 hPa North 38.9 mph /  62.6 km/h 38.9 mph /  62.6 km/h 55 % 0.0 in /  0 mm 149.0 W/m2 CLR
16:09 10.0 °F /  -12.2 °C 1.6 °F /  -16.9 °C 1021.6 in /  34591.4 hPa North 48.1 mph /  77.4 km/h 48.1 mph /  77.4 km/h 56 % 0.0 in /  0 mm 86.0 W/m2 CLR
16:23 9.4 °F /  -12.6 °C 1.3 °F /  -17.1 °C 1021.6 in /  34591.4 hPa NW 50.0 mph /  80.5 km/h 50.0 mph /  80.5 km/h 57 % 0.0 in /  0 mm 186.0 W/m2 CLR
16:49 8.9 °F /  -12.8 °C 1.6 °F /  -16.9 °C 1021.2 in /  34577.8 hPa NW 35.2 mph /  56.6 km/h 35.2 mph /  56.6 km/h 60 % 0.0 in /  0 mm 49.0 W/m2 FEW
17:00 8.9 °F /  -12.8 °C 2.0 °F /  -16.7 °C 1021.6 in /  34591.4 hPa NW 46.3 mph /  74.5 km/h 46.3 mph /  74.5 km/h 62 % 0.0 in /  0 mm 47.0 W/m2 SCT
17:01 8.9 °F /  -12.8 °C 2.0 °F /  -16.7 °C 1021.2 in /  34577.8 hPa NW 37.0 mph /  59.5 km/h 37.0 mph /  59.5 km/h 62 % 0.0 in /  0 mm 47.0 W/m2 SCT
17:07 8.9 °F /  -12.8 °C 2.0 °F /  -16.7 °C 1021.6 in /  34591.4 hPa North 42.6 mph /  68.6 km/h 42.6 mph /  68.6 km/h 62 % 0.0 in /  0 mm 40.0 W/m2 BKN
17:15 8.9 °F /  -12.8 °C 2.2 °F /  -16.6 °C 1021.6 in /  34591.4 hPa North 43.4 mph /  69.8 km/h 43.4 mph /  69.8 km/h 63 % 0.0 in /  0 mm 32.0 W/m2 BKN
17:20 8.9 °F /  -12.8 °C 2.2 °F /  -16.6 °C 1021.6 in /  34591.4 hPa NNW 42.6 mph /  68.6 km/h 42.6 mph /  68.6 km/h 63 % 0.0 in /  0 mm 30.0 W/m2 BKN
17:35 8.3 °F /  -13.2 °C 1.4 °F /  -17 °C 1021.9 in /  34601.5 hPa NNW 55.5 mph /  89.3 km/h 55.5 mph /  89.3 km/h 62 % 0.0 in /  0 mm 16.0 W/m2 BKN
17:52 8.3 °F /  -13.2 °C 1.7 °F /  -16.8 °C 1022.2 in /  34611.7 hPa NNW 48.1 mph /  77.4 km/h 48.1 mph /  77.4 km/h 63 % 0.0 in /  0 mm 5.0 W/m2 OVC
18:07 7.8 °F /  -13.4 °C 1.6 °F /  -16.9 °C 1021.9 in /  34601.5 hPa North 33.3 mph /  53.6 km/h 33.3 mph /  53.6 km/h 65 % 0.0 in /  0 mm 0.0 W/m2 CLR
18:16 7.8 °F /  -13.4 °C 2.1 °F /  -16.6 °C 1022.2 in /  34611.7 hPa NW 18.5 mph /  29.8 km/h 18.5 mph /  29.8 km/h 67 % 0.0 in /  0 mm 0.0 W/m2 CLR
18:37 7.2 °F /  -13.8 °C 1.5 °F /  -16.9 °C 1022.6 in /  34625.2 hPa NW 20.9 mph /  33.6 km/h 20.9 mph /  33.6 km/h 67 % 0.0 in /  0 mm 0.0 W/m2 CLR
18:47 7.2 °F /  -13.8 °C 1.5 °F /  -16.9 °C 1022.6 in /  34625.2 hPa NW 18.5 mph /  29.8 km/h 18.5 mph /  29.8 km/h 67 % 0.0 in /  0 mm 0.0 W/m2 CLR
18:59 7.2 °F /  -13.8 °C 1.5 °F /  -16.9 °C 1022.6 in /  34625.2 hPa NW 20.9 mph /  33.6 km/h 20.9 mph /  33.6 km/h 67 % 0.0 in /  0 mm 0.0 W/m2 CLR
19:07 6.7 °F /  -14.1 °C 1.2 °F /  -17.1 °C 1022.9 in /  34635.4 hPa North 24.1 mph /  38.8 km/h 27.4 mph /  44.1 km/h 68 % 0.0 in /  0 mm 0.0 W/m2 CLR
19:19 7.2 °F /  -13.8 °C 1.7 °F /  -16.8 °C 1022.9 in /  34635.4 hPa NW 24.1 mph /  38.8 km/h 24.1 mph /  38.8 km/h 68 % 0.0 in /  0 mm 0.0 W/m2 CLR
19:41 6.7 °F /  -14.1 °C 1.4 °F /  -17 °C 1023.2 in /  34645.6 hPa NW 40.7 mph /  65.5 km/h 40.7 mph /  65.5 km/h 69 % 0.0 in /  0 mm 0.0 W/m2 CLR
20:13 6.7 °F /  -14.1 °C 1.8 °F /  -16.8 °C 1023.6 in /  34659.1 hPa NNW 32.2 mph /  51.8 km/h 32.2 mph /  51.8 km/h 71 % 0.0 in /  0 mm 0.0 W/m2 CLR
20:26 6.7 °F /  -14.1 °C 1.8 °F /  -16.8 °C 1023.9 in /  34669.3 hPa NNW 31.5 mph /  50.7 km/h 31.5 mph /  50.7 km/h 71 % 0.0 in /  0 mm 0.0 W/m2 CLR
20:36 6.7 °F /  -14.1 °C 2.0 °F /  -16.7 °C 1024.3 in /  34682.8 hPa NNW 35.2 mph /  56.6 km/h 35.2 mph /  56.6 km/h 72 % 0.0 in /  0 mm 0.0 W/m2 CLR
20:49 6.7 °F /  -14.1 °C 2.3 °F /  -16.5 °C 1024.3 in /  34682.8 hPa NNW 27.8 mph /  44.7 km/h 27.8 mph /  44.7 km/h 74 % 0.0 in /  0 mm 0.0 W/m2 CLR
20:55 6.1 °F /  -14.4 °C 2.0 °F /  -16.7 °C 1024.3 in /  34682.8 hPa North 25.9 mph /  41.7 km/h 25.9 mph /  41.7 km/h 75 % 0.0 in /  0 mm 0.0 W/m2 CLR
21:10 6.1 °F /  -14.4 °C 2.2 °F /  -16.6 °C 1023.9 in /  34669.3 hPa North 25.9 mph /  41.7 km/h 25.9 mph /  41.7 km/h 76 % 0.0 in /  0 mm 0.0 W/m2 CLR
21:25 6.1 °F /  -14.4 °C 2.2 °F /  -16.6 °C 1024.3 in /  34682.8 hPa NW 22.2 mph /  35.7 km/h 22.2 mph /  35.7 km/h 76 % 0.0 in /  0 mm 0.0 W/m2 CLR
21:32 6.1 °F /  -14.4 °C 2.2 °F /  -16.6 °C 1024.3 in /  34682.8 hPa NW 29.6 mph /  47.6 km/h 29.6 mph /  47.6 km/h 76 % 0.0 in /  0 mm 0.0 W/m2 CLR
21:41 6.1 °F /  -14.4 °C 2.2 °F /  -16.6 °C 1024.3 in /  34682.8 hPa NNW 29.6 mph /  47.6 km/h 29.6 mph /  47.6 km/h 76 % 0.0 in /  0 mm 0.0 W/m2 CLR
21:56 6.1 °F /  -14.4 °C 2.4 °F /  -16.4 °C 1024.6 in /  34693 hPa WNW 31.5 mph /  50.7 km/h 31.5 mph /  50.7 km/h 77 % 0.0 in /  0 mm 0.0 W/m2 CLR
22:05 6.1 °F /  -14.4 °C 2.6 °F /  -16.3 °C 1024.6 in /  34693 hPa NW 35.2 mph /  56.6 km/h 35.2 mph /  56.6 km/h 78 % 0.0 in /  0 mm 0.0 W/m2 CLR
22:12 6.1 °F /  -14.4 °C 2.6 °F /  -16.3 °C 1024.6 in /  34693 hPa NNW 35.2 mph /  56.6 km/h 35.2 mph /  56.6 km/h 78 % 0.0 in /  0 mm 0.0 W/m2 CLR
22:36 6.1 °F /  -14.4 °C 2.6 °F /  -16.3 °C 1024.6 in /  34693 hPa NNW 29.6 mph /  47.6 km/h 29.6 mph /  47.6 km/h 78 % 0.0 in /  0 mm 0.0 W/m2 CLR
22:43 5.6 °F /  -14.7 °C 2.0 °F /  -16.7 °C 1024.6 in /  34693 hPa NW 33.3 mph /  53.6 km/h 33.3 mph /  53.6 km/h 78 % 0.0 in /  0 mm 0.0 W/m2 CLR
22:56 5.6 °F /  -14.7 °C 2.0 °F /  -16.7 °C 1024.3 in /  34682.8 hPa NW 25.9 mph /  41.7 km/h 25.9 mph /  41.7 km/h 78 % 0.0 in /  0 mm 0.0 W/m2 CLR
23:02 5.6 °F /  -14.7 °C 2.0 °F /  -16.7 °C 1024.6 in /  34693 hPa WNW 16.7 mph /  26.9 km/h 16.7 mph /  26.9 km/h 78 % 0.0 in /  0 mm 0.0 W/m2 CLR
23:03 5.6 °F /  -14.7 °C 2.0 °F /  -16.7 °C 1024.3 in /  34682.8 hPa WNW 16.7 mph /  26.9 km/h 16.7 mph /  26.9 km/h 78 % 0.0 in /  0 mm 0.0 W/m2 CLR
23:13 5.6 °F /  -14.7 °C 1.8 °F /  -16.8 °C 1024.9 in /  34703.1 hPa NW 9.3 mph /  15 km/h 9.3 mph /  15 km/h 77 % 0.0 in /  0 mm 0.0 W/m2 CLR
23:33 6.1 °F /  -14.4 °C 2.2 °F /  -16.6 °C 1024.9 in /  34703.1 hPa WNW 22.5 mph /  36.2 km/h 22.5 mph /  36.2 km/h 76 % 0.0 in /  0 mm 0.0 W/m2 CLR
23:44 6.1 °F /  -14.4 °C 2.2 °F /  -16.6 °C 1024.9 in /  34703.1 hPa NW 18.5 mph /  29.8 km/h 18.5 mph /  29.8 km/h 76 % 0.0 in /  0 mm 0.0 W/m2 CLR
23:52 6.1 °F /  -14.4 °C 2.2 °F /  -16.6 °C 1024.9 in /  34703.1 hPa NNW 16.7 mph /  26.9 km/h 16.7 mph /  26.9 km/h 76 % 0.0 in /  0 mm 0.0 W/m2 CLR
Lo Temps de Massalio
Compliments of Weather Underground - 768 kb